sensor_id;sensor_type;location;lat;lon;timestamp;pressure;altitude;pressure_sealevel;temperature;humidity
61898;BME280;47850;50.274;18.908;2022-09-23T00:01:59;98637.17;;;7.12;99.91
61898;BME280;47850;50.274;18.908;2022-09-23T00:04:43;98643.73;;;7.11;99.91
61898;BME280;47850;50.274;18.908;2022-09-23T00:07:27;98636.52;;;7.11;99.91
61898;BME280;47850;50.274;18.908;2022-09-23T00:10:11;98635.70;;;7.13;99.94
61898;BME280;47850;50.274;18.908;2022-09-23T00:12:56;98630.15;;;7.15;100.00
61898;BME280;47850;50.274;18.908;2022-09-23T00:15:40;98631.26;;;7.16;99.97
61898;BME280;47850;50.274;18.908;2022-09-23T00:18:24;98632.19;;;7.17;99.95
61898;BME280;47850;50.274;18.908;2022-09-23T00:21:11;98631.64;;;7.18;99.95
61898;BME280;47850;50.274;18.908;2022-09-23T00:23:55;98627.79;;;7.17;99.89
61898;BME280;47850;50.274;18.908;2022-09-23T00:26:40;98628.88;;;7.17;99.87
61898;BME280;47850;50.274;18.908;2022-09-23T00:29:24;98626.00;;;7.17;99.85
61898;BME280;47850;50.274;18.908;2022-09-23T00:32:08;98623.02;;;7.18;99.91
61898;BME280;47850;50.274;18.908;2022-09-23T00:34:52;98621.29;;;7.18;99.85
61898;BME280;47850;50.274;18.908;2022-09-23T00:37:36;98615.03;;;7.18;99.92
61898;BME280;47850;50.274;18.908;2022-09-23T00:40:20;98612.22;;;7.17;99.92
61898;BME280;47850;50.274;18.908;2022-09-23T00:43:04;98608.85;;;7.17;99.95
61898;BME280;47850;50.274;18.908;2022-09-23T00:45:49;98609.09;;;7.16;99.99
61898;BME280;47850;50.274;18.908;2022-09-23T00:48:35;98603.63;;;7.14;99.95
61898;BME280;47850;50.274;18.908;2022-09-23T00:51:22;98605.11;;;7.12;99.98
61898;BME280;47850;50.274;18.908;2022-09-23T00:54:08;98608.56;;;7.09;100.00
61898;BME280;47850;50.274;18.908;2022-09-23T00:56:53;98607.77;;;7.07;100.00
61898;BME280;47850;50.274;18.908;2022-09-23T00:59:42;98606.98;;;7.04;100.00
61898;BME280;47850;50.274;18.908;2022-09-23T01:02:26;98603.37;;;7.01;100.00
61898;BME280;47850;50.274;18.908;2022-09-23T01:05:11;98603.23;;;6.99;100.00
61898;BME280;47850;50.274;18.908;2022-09-23T01:07:56;98602.42;;;6.98;100.00
61898;BME280;47850;50.274;18.908;2022-09-23T01:11:05;98599.77;;;6.98;100.00
61898;BME280;47850;50.274;18.908;2022-09-23T01:30:03;98600.16;;;6.96;100.00
61898;BME280;47850;50.274;18.908;2022-09-23T01:33:01;98600.25;;;6.98;100.00
61898;BME280;47850;50.274;18.908;2022-09-23T01:39:06;98588.81;;;7.03;100.00
61898;BME280;47850;50.274;18.908;2022-09-23T01:41:59;98591.83;;;7.06;100.00
61898;BME280;47850;50.274;18.908;2022-09-23T01:47:51;98591.05;;;7.08;100.00
61898;BME280;47850;50.274;18.908;2022-09-23T01:50:43;98586.27;;;7.09;100.00
61898;BME280;47850;50.274;18.908;2022-09-23T01:54:11;98584.70;;;7.09;100.00
61898;BME280;47850;50.274;18.908;2022-09-23T01:57:03;98582.08;;;7.11;100.00
61898;BME280;47850;50.274;18.908;2022-09-23T02:00:03;98582.30;;;7.10;100.00
61898;BME280;47850;50.274;18.908;2022-09-23T02:03:06;98581.52;;;7.08;100.00
61898;BME280;47850;50.274;18.908;2022-09-23T02:06:03;98584.52;;;7.04;100.00
61898;BME280;47850;50.274;18.908;2022-09-23T02:11:36;98590.11;;;7.04;100.00
61898;BME280;47850;50.274;18.908;2022-09-23T02:14:37;98585.52;;;7.08;100.00
61898;BME280;47850;50.274;18.908;2022-09-23T02:17:30;98586.94;;;7.11;100.00
61898;BME280;47850;50.274;18.908;2022-09-23T02:20:28;98587.15;;;7.14;100.00
61898;BME280;47850;50.274;18.908;2022-09-23T02:23:18;98588.35;;;7.16;100.00
61898;BME280;47850;50.274;18.908;2022-09-23T02:29:08;98581.00;;;7.22;100.00
61898;BME280;47850;50.274;18.908;2022-09-23T02:35:33;98585.70;;;7.24;100.00
61898;BME280;47850;50.274;18.908;2022-09-23T02:44:11;98578.77;;;7.27;100.00
61898;BME280;47850;50.274;18.908;2022-09-23T02:46:56;98578.11;;;7.27;100.00
61898;BME280;47850;50.274;18.908;2022-09-23T02:49:40;98581.36;;;7.28;100.00
61898;BME280;47850;50.274;18.908;2022-09-23T02:52:25;98582.05;;;7.29;100.00
61898;BME280;47850;50.274;18.908;2022-09-23T02:55:11;98585.17;;;7.27;100.00
61898;BME280;47850;50.274;18.908;2022-09-23T02:58:01;98577.93;;;7.24;100.00
61898;BME280;47850;50.274;18.908;2022-09-23T03:01:06;98581.10;;;7.22;100.00
61898;BME280;47850;50.274;18.908;2022-09-23T03:04:06;98581.84;;;7.17;100.00
61898;BME280;47850;50.274;18.908;2022-09-23T03:10:15;98575.59;;;7.14;100.00
61898;BME280;47850;50.274;18.908;2022-09-23T03:16:19;98578.39;;;7.10;100.00
61898;BME280;47850;50.274;18.908;2022-09-23T03:19:19;98575.87;;;7.08;100.00
61898;BME280;47850;50.274;18.908;2022-09-23T03:22:10;98574.36;;;7.07;100.00
61898;BME280;47850;50.274;18.908;2022-09-23T03:25:01;98573.98;;;7.06;100.00
61898;BME280;47850;50.274;18.908;2022-09-23T03:27:49;98571.34;;;7.04;100.00
61898;BME280;47850;50.274;18.908;2022-09-23T03:30:40;98570.91;;;7.04;100.00
61898;BME280;47850;50.274;18.908;2022-09-23T03:33:26;98572.64;;;7.06;100.00
61898;BME280;47850;50.274;18.908;2022-09-23T03:36:15;98570.71;;;7.08;100.00
61898;BME280;47850;50.274;18.908;2022-09-23T03:39:35;98572.88;;;7.09;100.00
61898;BME280;47850;50.274;18.908;2022-09-23T03:42:25;98573.91;;;7.09;100.00
61898;BME280;47850;50.274;18.908;2022-09-23T03:45:15;98574.20;;;7.10;100.00
61898;BME280;47850;50.274;18.908;2022-09-23T03:48:01;98573.45;;;7.10;100.00
61898;BME280;47850;50.274;18.908;2022-09-23T03:50:45;98571.45;;;7.09;100.00
61898;BME280;47850;50.274;18.908;2022-09-23T03:53:31;98573.52;;;7.09;100.00
61898;BME280;47850;50.274;18.908;2022-09-23T03:56:15;98571.05;;;7.08;100.00
61898;BME280;47850;50.274;18.908;2022-09-23T03:58:59;98570.17;;;7.07;100.00
61898;BME280;47850;50.274;18.908;2022-09-23T04:01:43;98570.48;;;7.05;100.00
61898;BME280;47850;50.274;18.908;2022-09-23T04:04:14;98570.91;;;7.03;100.00
61898;BME280;47850;50.274;18.908;2022-09-23T04:06:45;98570.02;;;7.01;100.00
61898;BME280;47850;50.274;18.908;2022-09-23T04:09:14;98569.21;;;7.00;100.00
61898;BME280;47850;50.274;18.908;2022-09-23T04:11:41;98567.45;;;6.99;100.00
61898;BME280;47850;50.274;18.908;2022-09-23T04:14:10;98563.92;;;6.97;100.00
61898;BME280;47850;50.274;18.908;2022-09-23T04:16:40;98566.81;;;6.96;100.00
61898;BME280;47850;50.274;18.908;2022-09-23T04:19:10;98562.08;;;6.93;100.00
61898;BME280;47850;50.274;18.908;2022-09-23T04:21:42;98562.70;;;6.88;100.00
61898;BME280;47850;50.274;18.908;2022-09-23T04:24:12;98564.37;;;6.85;100.00
61898;BME280;47850;50.274;18.908;2022-09-23T04:26:43;98568.66;;;6.83;100.00
61898;BME280;47850;50.274;18.908;2022-09-23T04:29:12;98567.59;;;6.81;100.00
61898;BME280;47850;50.274;18.908;2022-09-23T04:31:41;98562.89;;;6.80;100.00
61898;BME280;47850;50.274;18.908;2022-09-23T04:34:11;98567.08;;;6.79;100.00
61898;BME280;47850;50.274;18.908;2022-09-23T04:36:41;98564.04;;;6.79;100.00
61898;BME280;47850;50.274;18.908;2022-09-23T04:39:11;98564.22;;;6.77;100.00
61898;BME280;47850;50.274;18.908;2022-09-23T04:41:41;98563.69;;;6.75;100.00
61898;BME280;47850;50.274;18.908;2022-09-23T04:44:12;98566.06;;;6.72;100.00
61898;BME280;47850;50.274;18.908;2022-09-23T04:46:42;98565.88;;;6.72;100.00
61898;BME280;47850;50.274;18.908;2022-09-23T04:49:16;98567.20;;;6.70;100.00
61898;BME280;47850;50.274;18.908;2022-09-23T04:51:45;98567.80;;;6.70;100.00
61898;BME280;47850;50.274;18.908;2022-09-23T04:54:15;98567.14;;;6.71;100.00
61898;BME280;47850;50.274;18.908;2022-09-23T04:56:42;98567.19;;;6.72;100.00
61898;BME280;47850;50.274;18.908;2022-09-23T04:59:12;98568.36;;;6.73;100.00
61898;BME280;47850;50.274;18.908;2022-09-23T05:01:41;98564.91;;;6.73;100.00
61898;BME280;47850;50.274;18.908;2022-09-23T05:04:11;98569.98;;;6.73;100.00
61898;BME280;47850;50.274;18.908;2022-09-23T05:06:42;98571.35;;;6.74;100.00
61898;BME280;47850;50.274;18.908;2022-09-23T05:09:15;98572.41;;;6.76;100.00
61898;BME280;47850;50.274;18.908;2022-09-23T05:11:47;98574.73;;;6.77;100.00
61898;BME280;47850;50.274;18.908;2022-09-23T05:14:14;98577.44;;;6.78;100.00
61898;BME280;47850;50.274;18.908;2022-09-23T05:16:42;98576.52;;;6.79;100.00
61898;BME280;47850;50.274;18.908;2022-09-23T05:19:12;98584.69;;;6.81;100.00
61898;BME280;47850;50.274;18.908;2022-09-23T05:21:41;98585.05;;;6.82;100.00
61898;BME280;47850;50.274;18.908;2022-09-23T05:24:11;98585.73;;;6.84;100.00
61898;BME280;47850;50.274;18.908;2022-09-23T05:26:41;98588.80;;;6.87;100.00
61898;BME280;47850;50.274;18.908;2022-09-23T05:29:10;98586.16;;;6.91;100.00
61898;BME280;47850;50.274;18.908;2022-09-23T05:31:40;98591.71;;;6.95;100.00
61898;BME280;47850;50.274;18.908;2022-09-23T05:34:09;98590.92;;;6.97;100.00
61898;BME280;47850;50.274;18.908;2022-09-23T05:36:39;98593.19;;;7.00;100.00
61898;BME280;47850;50.274;18.908;2022-09-23T05:39:09;98590.83;;;7.03;100.00
61898;BME280;47850;50.274;18.908;2022-09-23T05:41:38;98591.94;;;7.06;100.00
61898;BME280;47850;50.274;18.908;2022-09-23T05:44:09;98598.41;;;7.10;100.00
61898;BME280;47850;50.274;18.908;2022-09-23T05:46:39;98595.51;;;7.13;100.00
61898;BME280;47850;50.274;18.908;2022-09-23T05:49:09;98594.27;;;7.18;100.00
61898;BME280;47850;50.274;18.908;2022-09-23T05:51:38;98594.27;;;7.22;100.00
61898;BME280;47850;50.274;18.908;2022-09-23T05:54:08;98597.71;;;7.26;100.00
61898;BME280;47850;50.274;18.908;2022-09-23T05:56:54;98597.52;;;7.34;100.00
61898;BME280;47850;50.274;18.908;2022-09-23T05:59:24;98597.99;;;7.36;100.00
61898;BME280;47850;50.274;18.908;2022-09-23T06:01:54;98596.37;;;7.40;100.00
61898;BME280;47850;50.274;18.908;2022-09-23T06:04:41;98598.09;;;7.47;100.00
61898;BME280;47850;50.274;18.908;2022-09-23T06:07:11;98596.02;;;7.48;100.00
61898;BME280;47850;50.274;18.908;2022-09-23T06:09:39;98593.96;;;7.52;100.00
61898;BME280;47850;50.274;18.908;2022-09-23T06:12:10;98593.28;;;7.56;100.00
61898;BME280;47850;50.274;18.908;2022-09-23T06:14:41;98595.34;;;7.60;100.00
61898;BME280;47850;50.274;18.908;2022-09-23T06:17:21;98593.29;;;7.64;100.00
61898;BME280;47850;50.274;18.908;2022-09-23T06:19:50;98593.05;;;7.65;100.00
61898;BME280;47850;50.274;18.908;2022-09-23T06:22:23;98591.40;;;7.68;100.00
61898;BME280;47850;50.274;18.908;2022-09-23T06:24:52;98594.02;;;7.71;100.00
61898;BME280;47850;50.274;18.908;2022-09-23T06:27:22;98593.70;;;7.74;100.00
61898;BME280;47850;50.274;18.908;2022-09-23T06:29:52;98596.14;;;7.79;100.00
61898;BME280;47850;50.274;18.908;2022-09-23T06:32:21;98599.25;;;7.82;100.00
61898;BME280;47850;50.274;18.908;2022-09-23T06:34:51;98602.49;;;7.89;100.00
61898;BME280;47850;50.274;18.908;2022-09-23T06:37:20;98600.64;;;7.94;100.00
61898;BME280;47850;50.274;18.908;2022-09-23T06:39:47;98602.20;;;7.99;100.00
61898;BME280;47850;50.274;18.908;2022-09-23T06:42:15;98603.11;;;8.03;100.00
61898;BME280;47850;50.274;18.908;2022-09-23T06:44:44;98601.92;;;8.08;100.00
61898;BME280;47850;50.274;18.908;2022-09-23T06:47:14;98606.02;;;8.14;100.00
61898;BME280;47850;50.274;18.908;2022-09-23T06:49:43;98603.07;;;8.20;100.00
61898;BME280;47850;50.274;18.908;2022-09-23T06:52:13;98605.14;;;8.27;100.00
61898;BME280;47850;50.274;18.908;2022-09-23T06:54:41;98607.92;;;8.33;99.87
61898;BME280;47850;50.274;18.908;2022-09-23T06:57:10;98608.30;;;8.38;99.53
61898;BME280;47850;50.274;18.908;2022-09-23T06:59:40;98607.06;;;8.44;99.38
61898;BME280;47850;50.274;18.908;2022-09-23T07:02:10;98605.77;;;8.50;99.41
61898;BME280;47850;50.274;18.908;2022-09-23T07:04:40;98608.47;;;8.55;99.32
61898;BME280;47850;50.274;18.908;2022-09-23T07:07:09;98613.02;;;8.63;99.51
61898;BME280;47850;50.274;18.908;2022-09-23T07:09:39;98611.92;;;8.71;99.15
61898;BME280;47850;50.274;18.908;2022-09-23T07:12:09;98610.42;;;8.76;98.94
61898;BME280;47850;50.274;18.908;2022-09-23T07:14:39;98610.05;;;8.83;98.86
61898;BME280;47850;50.274;18.908;2022-09-23T07:17:08;98605.73;;;8.91;98.48
61898;BME280;47850;50.274;18.908;2022-09-23T07:19:38;98604.20;;;8.98;98.14
61898;BME280;47850;50.274;18.908;2022-09-23T07:22:07;98602.92;;;9.05;98.01
61898;BME280;47850;50.274;18.908;2022-09-23T07:24:37;98604.05;;;9.16;97.85
61898;BME280;47850;50.274;18.908;2022-09-23T07:27:06;98606.48;;;9.26;97.66
61898;BME280;47850;50.274;18.908;2022-09-23T07:29:42;98608.02;;;9.38;97.34
61898;BME280;47850;50.274;18.908;2022-09-23T07:32:12;98609.49;;;9.51;96.74
61898;BME280;47850;50.274;18.908;2022-09-23T07:34:41;98610.84;;;9.61;95.65
61898;BME280;47850;50.274;18.908;2022-09-23T07:37:12;98610.66;;;9.67;95.60
61898;BME280;47850;50.274;18.908;2022-09-23T07:39:43;98613.75;;;9.71;94.82
61898;BME280;47850;50.274;18.908;2022-09-23T07:42:12;98616.79;;;9.77;94.71
61898;BME280;47850;50.274;18.908;2022-09-23T07:44:43;98619.12;;;9.84;94.32
61898;BME280;47850;50.274;18.908;2022-09-23T07:47:13;98620.92;;;9.97;94.25
61898;BME280;47850;50.274;18.908;2022-09-23T07:49:43;98620.64;;;10.13;93.24
61898;BME280;47850;50.274;18.908;2022-09-23T07:52:12;98619.12;;;10.25;92.30
61898;BME280;47850;50.274;18.908;2022-09-23T07:54:42;98619.66;;;10.42;91.92
61898;BME280;47850;50.274;18.908;2022-09-23T07:57:14;98617.12;;;10.60;91.52
61898;BME280;47850;50.274;18.908;2022-09-23T07:59:44;98618.05;;;10.77;91.08
61898;BME280;47850;50.274;18.908;2022-09-23T08:02:13;98617.02;;;10.90;90.16
61898;BME280;47850;50.274;18.908;2022-09-23T08:04:44;98622.02;;;10.97;89.77
61898;BME280;47850;50.274;18.908;2022-09-23T08:07:14;98622.45;;;11.00;89.06
61898;BME280;47850;50.274;18.908;2022-09-23T08:09:44;98623.86;;;10.98;88.56
61898;BME280;47850;50.274;18.908;2022-09-23T08:12:16;98625.14;;;10.99;88.84
61898;BME280;47850;50.274;18.908;2022-09-23T08:14:46;98625.60;;;11.05;88.58
61898;BME280;47850;50.274;18.908;2022-09-23T08:17:15;98626.64;;;11.07;87.53
61898;BME280;47850;50.274;18.908;2022-09-23T08:19:45;98626.02;;;11.04;86.96
61898;BME280;47850;50.274;18.908;2022-09-23T08:22:14;98622.95;;;11.07;87.19
61898;BME280;47850;50.274;18.908;2022-09-23T08:24:44;98622.48;;;11.13;86.76
61898;BME280;47850;50.274;18.908;2022-09-23T08:27:14;98617.75;;;11.24;86.85
61898;BME280;47850;50.274;18.908;2022-09-23T08:29:43;98613.11;;;11.41;85.97
61898;BME280;47850;50.274;18.908;2022-09-23T08:32:13;98611.63;;;11.60;85.17
61898;BME280;47850;50.274;18.908;2022-09-23T08:34:42;98610.70;;;11.79;84.11
61898;BME280;47850;50.274;18.908;2022-09-23T08:37:12;98607.73;;;12.04;84.21
61898;BME280;47850;50.274;18.908;2022-09-23T08:39:42;98607.86;;;12.18;83.75
61898;BME280;47850;50.274;18.908;2022-09-23T08:42:25;98608.57;;;12.32;83.49
61898;BME280;47850;50.274;18.908;2022-09-23T08:44:59;98604.90;;;12.41;82.38
61898;BME280;47850;50.274;18.908;2022-09-23T08:50:23;98605.16;;;12.59;81.34
61898;BME280;47850;50.274;18.908;2022-09-23T08:52:58;98601.88;;;12.64;79.86
61898;BME280;47850;50.274;18.908;2022-09-23T09:04:01;98600.73;;;12.84;77.86
61898;BME280;47850;50.274;18.908;2022-09-23T09:06:35;98600.98;;;12.99;76.33
61898;BME280;47850;50.274;18.908;2022-09-23T09:09:33;98599.04;;;13.14;75.62
61898;BME280;47850;50.274;18.908;2022-09-23T09:12:21;98595.61;;;13.09;72.76
61898;BME280;47850;50.274;18.908;2022-09-23T09:17:43;98596.48;;;12.92;73.07
61898;BME280;47850;50.274;18.908;2022-09-23T09:20:23;98598.34;;;12.76;73.93
61898;BME280;47850;50.274;18.908;2022-09-23T09:22:58;98604.55;;;12.64;74.74
61898;BME280;47850;50.274;18.908;2022-09-23T09:28:26;98601.33;;;12.48;75.40
61898;BME280;47850;50.274;18.908;2022-09-23T09:31:00;98601.74;;;12.43;74.58
61898;BME280;47850;50.274;18.908;2022-09-23T09:36:56;98594.66;;;12.37;74.17
61898;BME280;47850;50.274;18.908;2022-09-23T09:39:30;98588.96;;;12.36;73.50
61898;BME280;47850;50.274;18.908;2022-09-23T09:42:00;98585.10;;;12.51;73.81
61898;BME280;47850;50.274;18.908;2022-09-23T09:44:40;98579.23;;;12.79;73.48
61898;BME280;47850;50.274;18.908;2022-09-23T09:50:18;98561.83;;;13.18;69.62
61898;BME280;47850;50.274;18.908;2022-09-23T09:53:28;98564.31;;;13.39;66.89
61898;BME280;47850;50.274;18.908;2022-09-23T09:56:03;98555.19;;;13.45;65.40
61898;BME280;47850;50.274;18.908;2022-09-23T09:58:52;98556.77;;;13.59;66.62
61898;BME280;47850;50.274;18.908;2022-09-23T10:01:30;98554.80;;;13.72;66.69
61898;BME280;47850;50.274;18.908;2022-09-23T10:04:22;98556.00;;;13.73;67.19
61898;BME280;47850;50.274;18.908;2022-09-23T10:07:13;98553.79;;;13.67;66.55
61898;BME280;47850;50.274;18.908;2022-09-23T10:09:48;98551.59;;;13.55;66.40
61898;BME280;47850;50.274;18.908;2022-09-23T10:12:23;98550.21;;;13.46;66.38
61898;BME280;47850;50.274;18.908;2022-09-23T10:14:55;98550.21;;;13.40;66.14
61898;BME280;47850;50.274;18.908;2022-09-23T10:17:32;98547.63;;;13.35;66.33
61898;BME280;47850;50.274;18.908;2022-09-23T10:20:06;98547.91;;;13.36;67.03
61898;BME280;47850;50.274;18.908;2022-09-23T10:22:38;98547.13;;;13.45;66.43
61898;BME280;47850;50.274;18.908;2022-09-23T10:25:22;98540.51;;;13.53;65.65
61898;BME280;47850;50.274;18.908;2022-09-23T10:27:54;98539.95;;;13.61;65.08
61898;BME280;47850;50.274;18.908;2022-09-23T10:30:26;98540.89;;;13.69;65.39
61898;BME280;47850;50.274;18.908;2022-09-23T10:32:55;98543.16;;;13.93;65.33
61898;BME280;47850;50.274;18.908;2022-09-23T10:35:25;98543.34;;;14.21;62.83
61898;BME280;47850;50.274;18.908;2022-09-23T10:37:58;98541.52;;;14.44;60.43
61898;BME280;47850;50.274;18.908;2022-09-23T10:40:29;98538.44;;;14.65;58.48
61898;BME280;47850;50.274;18.908;2022-09-23T10:47:13;98533.01;;;15.36;56.66
61898;BME280;47850;50.274;18.908;2022-09-23T10:55:15;98528.52;;;15.72;55.47
61898;BME280;47850;50.274;18.908;2022-09-23T11:03:22;98518.35;;;15.71;54.92
61898;BME280;47850;50.274;18.908;2022-09-23T11:06:16;98517.02;;;15.81;55.12
61898;BME280;47850;50.274;18.908;2022-09-23T11:14:51;98516.66;;;16.47;50.94
61898;BME280;47850;50.274;18.908;2022-09-23T11:28:55;98501.19;;;17.75;45.11
61898;BME280;47850;50.274;18.908;2022-09-23T11:31:49;98498.50;;;18.18;44.70
61898;BME280;47850;50.274;18.908;2022-09-23T11:37:19;98491.50;;;19.04;42.56
61898;BME280;47850;50.274;18.908;2022-09-23T11:42:34;98485.34;;;19.83;40.56
61898;BME280;47850;50.274;18.908;2022-09-23T11:45:14;98484.88;;;20.09;41.50
61898;BME280;47850;50.274;18.908;2022-09-23T11:48:05;98483.40;;;20.37;39.60
61898;BME280;47850;50.274;18.908;2022-09-23T11:50:54;98476.84;;;20.23;38.30
61898;BME280;47850;50.274;18.908;2022-09-23T11:53:46;98476.88;;;20.08;37.59
61898;BME280;47850;50.274;18.908;2022-09-23T11:56:21;98476.20;;;20.11;36.89
61898;BME280;47850;50.274;18.908;2022-09-23T12:01:44;98472.16;;;21.03;35.93
61898;BME280;47850;50.274;18.908;2022-09-23T12:06:53;98462.67;;;21.93;33.07
61898;BME280;47850;50.274;18.908;2022-09-23T12:10:00;98462.66;;;22.45;32.62
61898;BME280;47850;50.274;18.908;2022-09-23T12:12:56;98460.90;;;23.23;31.83
61898;BME280;47850;50.274;18.908;2022-09-23T12:15:53;98458.06;;;23.83;30.67
61898;BME280;47850;50.274;18.908;2022-09-23T12:26:58;98434.84;;;24.08;29.36
61898;BME280;47850;50.274;18.908;2022-09-23T12:29:30;98433.52;;;24.18;30.78
61898;BME280;47850;50.274;18.908;2022-09-23T12:32:01;98435.58;;;23.67;31.18
61898;BME280;47850;50.274;18.908;2022-09-23T12:34:45;98435.69;;;22.90;32.29
61898;BME280;47850;50.274;18.908;2022-09-23T12:37:37;98427.14;;;22.13;33.49
61898;BME280;47850;50.274;18.908;2022-09-23T12:40:18;98420.73;;;21.41;33.72
61898;BME280;47850;50.274;18.908;2022-09-23T12:42:50;98420.77;;;20.77;34.69
61898;BME280;47850;50.274;18.908;2022-09-23T12:50:49;98413.71;;;19.62;37.01
61898;BME280;47850;50.274;18.908;2022-09-23T12:56:26;98412.35;;;19.28;38.07
61898;BME280;47850;50.274;18.908;2022-09-23T12:58:58;98409.10;;;19.27;38.03
61898;BME280;47850;50.274;18.908;2022-09-23T13:01:34;98408.29;;;19.58;37.60
61898;BME280;47850;50.274;18.908;2022-09-23T13:04:05;98408.76;;;19.42;38.57
61898;BME280;47850;50.274;18.908;2022-09-23T13:07:21;98411.55;;;19.06;38.56
61898;BME280;47850;50.274;18.908;2022-09-23T13:10:04;98410.54;;;18.72;39.07
61898;BME280;47850;50.274;18.908;2022-09-23T13:12:37;98406.23;;;18.38;39.67
61898;BME280;47850;50.274;18.908;2022-09-23T13:15:21;98404.63;;;18.15;40.95
61898;BME280;47850;50.274;18.908;2022-09-23T13:20:53;98399.07;;;17.72;42.43
61898;BME280;47850;50.274;18.908;2022-09-23T13:23:25;98393.46;;;17.49;42.53
61898;BME280;47850;50.274;18.908;2022-09-23T13:26:01;98392.60;;;17.32;43.23
61898;BME280;47850;50.274;18.908;2022-09-23T13:28:55;98390.69;;;17.17;43.46
61898;BME280;47850;50.274;18.908;2022-09-23T13:31:24;98389.33;;;17.30;43.91
61898;BME280;47850;50.274;18.908;2022-09-23T13:34:00;98387.06;;;17.49;44.80
61898;BME280;47850;50.274;18.908;2022-09-23T13:36:45;98380.59;;;17.33;45.79
61898;BME280;47850;50.274;18.908;2022-09-23T13:39:26;98378.39;;;17.13;45.07
61898;BME280;47850;50.274;18.908;2022-09-23T13:42:01;98373.85;;;16.91;45.57
61898;BME280;47850;50.274;18.908;2022-09-23T13:44:31;98372.00;;;16.73;46.63
61898;BME280;47850;50.274;18.908;2022-09-23T13:47:01;98372.34;;;16.59;47.04
61898;BME280;47850;50.274;18.908;2022-09-23T13:49:37;98367.77;;;16.43;47.86
61898;BME280;47850;50.274;18.908;2022-09-23T13:52:30;98367.42;;;16.29;47.44
61898;BME280;47850;50.274;18.908;2022-09-23T13:55:00;98366.25;;;16.21;47.07
61898;BME280;47850;50.274;18.908;2022-09-23T13:57:32;98368.48;;;16.21;47.58
61898;BME280;47850;50.274;18.908;2022-09-23T14:00:20;98362.21;;;16.31;47.44
61898;BME280;47850;50.274;18.908;2022-09-23T14:02:50;98358.33;;;17.34;46.46
61898;BME280;47850;50.274;18.908;2022-09-23T14:05:41;98351.78;;;19.07;43.81
61898;BME280;47850;50.274;18.908;2022-09-23T14:08:11;98352.65;;;21.70;40.60
61898;BME280;47850;50.274;18.908;2022-09-23T14:10:43;98349.25;;;23.48;36.91
61898;BME280;47850;50.274;18.908;2022-09-23T14:13:29;98344.41;;;23.46;35.88
61898;BME280;47850;50.274;18.908;2022-09-23T14:16:01;98338.84;;;24.62;33.28
61898;BME280;47850;50.274;18.908;2022-09-23T14:18:38;98338.42;;;24.93;32.64
61898;BME280;47850;50.274;18.908;2022-09-23T14:21:28;98338.62;;;26.36;31.13
61898;BME280;47850;50.274;18.908;2022-09-23T14:26:53;98331.92;;;29.20;27.71
61898;BME280;47850;50.274;18.908;2022-09-23T14:29:36;98334.42;;;30.46;26.09
61898;BME280;47850;50.274;18.908;2022-09-23T14:32:16;98337.79;;;31.43;24.38
61898;BME280;47850;50.274;18.908;2022-09-23T14:37:39;98323.41;;;33.11;22.33
61898;BME280;47850;50.274;18.908;2022-09-23T14:40:48;98329.25;;;33.77;21.87
61898;BME280;47850;50.274;18.908;2022-09-23T14:43:29;98324.61;;;34.37;21.12
61898;BME280;47850;50.274;18.908;2022-09-23T14:45:58;98322.96;;;34.16;20.58
61898;BME280;47850;50.274;18.908;2022-09-23T14:48:32;98321.76;;;32.53;21.52
61898;BME280;47850;50.274;18.908;2022-09-23T14:51:05;98324.17;;;32.45;21.04
61898;BME280;47850;50.274;18.908;2022-09-23T14:53:40;98320.84;;;32.52;20.80
61898;BME280;47850;50.274;18.908;2022-09-23T15:07:06;98308.52;;;29.35;22.89
61898;BME280;47850;50.274;18.908;2022-09-23T15:09:44;98312.00;;;27.23;24.46
61898;BME280;47850;50.274;18.908;2022-09-23T15:12:15;98307.83;;;25.60;26.38
61898;BME280;47850;50.274;18.908;2022-09-23T15:14:51;98314.06;;;24.09;27.80
61898;BME280;47850;50.274;18.908;2022-09-23T15:17:26;98315.41;;;22.78;29.58
61898;BME280;47850;50.274;18.908;2022-09-23T15:20:02;98314.85;;;21.61;31.25
61898;BME280;47850;50.274;18.908;2022-09-23T15:22:46;98314.45;;;20.62;32.95
61898;BME280;47850;50.274;18.908;2022-09-23T15:25:25;98314.06;;;19.69;34.89
61898;BME280;47850;50.274;18.908;2022-09-23T15:30:37;98318.41;;;18.18;38.46
61898;BME280;47850;50.274;18.908;2022-09-23T15:33:11;98316.63;;;17.63;39.95
61898;BME280;47850;50.274;18.908;2022-09-23T15:35:45;98315.87;;;17.72;39.73
61898;BME280;47850;50.274;18.908;2022-09-23T15:38:15;98307.53;;;18.11;39.58
61898;BME280;47850;50.274;18.908;2022-09-23T15:40:46;98306.29;;;19.19;38.32
61898;BME280;47850;50.274;18.908;2022-09-23T15:43:22;98304.14;;;19.22;37.63
61898;BME280;47850;50.274;18.908;2022-09-23T15:45:56;98302.02;;;18.80;38.46
61898;BME280;47850;50.274;18.908;2022-09-23T15:48:33;98300.11;;;18.41;37.99
61898;BME280;47850;50.274;18.908;2022-09-23T15:51:19;98306.73;;;18.13;39.57
61898;BME280;47850;50.274;18.908;2022-09-23T15:53:51;98297.35;;;18.51;39.43
61898;BME280;47850;50.274;18.908;2022-09-23T15:56:23;98295.50;;;19.71;37.96
61898;BME280;47850;50.274;18.908;2022-09-23T15:58:53;98292.80;;;20.77;36.00
61898;BME280;47850;50.274;18.908;2022-09-23T16:01:26;98295.13;;;21.61;35.47
61898;BME280;47850;50.274;18.908;2022-09-23T16:03:56;98292.98;;;22.08;34.37
61898;BME280;47850;50.274;18.908;2022-09-23T16:06:30;98295.38;;;21.86;34.18
61898;BME280;47850;50.274;18.908;2022-09-23T16:08:59;98293.55;;;21.18;35.99
61898;BME280;47850;50.274;18.908;2022-09-23T16:11:30;98293.80;;;20.26;38.36
61898;BME280;47850;50.274;18.908;2022-09-23T16:14:00;98290.88;;;19.24;40.90
61898;BME280;47850;50.274;18.908;2022-09-23T16:16:29;98293.64;;;18.36;43.16